createdAt,value
2022-11-24T00:01:23.176Z,100.00
2022-11-24T00:03:55.899Z,100.00
2022-11-24T00:06:24.588Z,100.00
2022-11-24T00:08:52.912Z,100.00
2022-11-24T00:11:22.864Z,100.00
2022-11-24T00:13:51.429Z,100.00
2022-11-24T00:16:22.540Z,100.00
2022-11-24T00:18:52.911Z,100.00
2022-11-24T00:21:22.021Z,100.00
2022-11-24T00:23:51.125Z,100.00
2022-11-24T00:26:21.345Z,100.00
2022-11-24T00:28:51.119Z,100.00
2022-11-24T00:31:22.697Z,100.00
2022-11-24T00:33:52.425Z,100.00
2022-11-24T00:36:22.565Z,100.00
2022-11-24T00:38:55.358Z,100.00
2022-11-24T00:41:23.912Z,100.00
2022-11-24T00:43:52.445Z,100.00
2022-11-24T00:46:22.725Z,100.00
2022-11-24T00:48:51.302Z,100.00
2022-11-24T00:51:20.877Z,100.00
2022-11-24T00:53:49.388Z,100.00
2022-11-24T00:56:17.737Z,100.00
2022-11-24T00:58:46.083Z,100.00
2022-11-24T01:01:15.917Z,100.00
2022-11-24T01:03:46.882Z,100.00
2022-11-24T01:06:16.923Z,100.00
2022-11-24T01:08:45.437Z,100.00
2022-11-24T01:11:15.337Z,100.00
2022-11-24T01:13:45.183Z,100.00
2022-11-24T01:16:17.960Z,100.00
2022-11-24T01:18:48.237Z,100.00
2022-11-24T01:21:17.326Z,100.00
2022-11-24T01:23:45.613Z,100.00
2022-11-24T01:26:15.171Z,100.00
2022-11-24T01:28:46.997Z,100.00
2022-11-24T01:31:16.667Z,100.00
2022-11-24T01:33:44.907Z,100.00
2022-11-24T01:36:14.701Z,100.00
2022-11-24T01:38:42.891Z,100.00
2022-11-24T01:41:13.787Z,100.00
2022-11-24T01:43:42.491Z,100.00
2022-11-24T01:46:18.610Z,100.00
2022-11-24T01:48:50.864Z,100.00
2022-11-24T01:51:23.793Z,100.00
2022-11-24T01:53:57.787Z,100.00
2022-11-24T01:56:26.732Z,100.00
2022-11-24T01:58:59.622Z,100.00
2022-11-24T02:01:31.613Z,100.00
2022-11-24T02:04:02.488Z,100.00
2022-11-24T02:06:34.644Z,100.00
2022-11-24T02:09:08.443Z,100.00
2022-11-24T02:11:38.868Z,100.00
2022-11-24T02:14:08.537Z,100.00
2022-11-24T02:16:38.213Z,100.00
2022-11-24T02:19:16.969Z,100.00
2022-11-24T02:21:46.886Z,100.00
2022-11-24T02:24:23.920Z,100.00
2022-11-24T02:26:53.497Z,100.00
2022-11-24T02:29:22.011Z,100.00
2022-11-24T02:31:55.446Z,100.00
2022-11-24T02:34:23.637Z,100.00
2022-11-24T02:36:51.758Z,100.00
2022-11-24T02:39:20.031Z,100.00
2022-11-24T02:41:55.021Z,100.00
2022-11-24T02:44:29.160Z,100.00
2022-11-24T02:47:04.140Z,100.00
2022-11-24T02:49:32.292Z,100.00
2022-11-24T02:52:00.674Z,100.00
2022-11-24T02:54:28.957Z,100.00
2022-11-24T02:56:58.718Z,100.00
2022-11-24T02:59:26.919Z,100.00
2022-11-24T03:01:55.094Z,100.00
2022-11-24T03:04:23.261Z,100.00
2022-11-24T03:06:51.353Z,100.00
2022-11-24T03:09:19.437Z,100.00
2022-11-24T03:11:47.615Z,100.00
2022-11-24T03:14:17.095Z,100.00
2022-11-24T03:16:45.171Z,100.00
2022-11-24T03:19:13.432Z,100.00
2022-11-24T03:21:41.528Z,100.00
2022-11-24T03:24:09.642Z,100.00
2022-11-24T03:26:37.786Z,100.00
2022-11-24T03:29:05.852Z,100.00
2022-11-24T03:31:35.553Z,100.00
2022-11-24T03:34:03.773Z,100.00
2022-11-24T03:36:31.884Z,100.00
2022-11-24T03:38:59.989Z,100.00
2022-11-24T03:41:28.108Z,100.00
2022-11-24T03:43:56.247Z,100.00
2022-11-24T03:46:24.464Z,100.00
2022-11-24T03:48:54.005Z,100.00
2022-11-24T03:51:22.121Z,100.00
2022-11-24T03:53:50.217Z,100.00
2022-11-24T03:56:18.416Z,100.00
2022-11-24T03:58:46.501Z,100.00
2022-11-24T04:01:14.725Z,100.00
2022-11-24T04:03:42.873Z,100.00
2022-11-24T04:06:12.463Z,100.00
2022-11-24T04:08:40.575Z,100.00
2022-11-24T04:11:08.733Z,100.00
2022-11-24T04:13:35.884Z,100.00
2022-11-24T04:16:07.146Z,100.00
2022-11-24T04:18:35.278Z,100.00
2022-11-24T04:21:03.349Z,100.00
2022-11-24T04:23:32.823Z,100.00
2022-11-24T04:26:01.023Z,100.00
2022-11-24T04:28:29.188Z,100.00
2022-11-24T04:31:02.838Z,100.00
2022-11-24T04:33:31.088Z,100.00
2022-11-24T04:35:59.350Z,100.00
2022-11-24T04:39:23.162Z,100.00
2022-11-24T04:41:17.068Z,100.00
2022-11-24T04:43:45.212Z,100.00
2022-11-24T04:46:13.398Z,100.00
2022-11-24T04:48:41.477Z,100.00
2022-11-24T04:51:09.709Z,100.00
2022-11-24T04:53:37.823Z,100.00
2022-11-24T04:56:06.843Z,100.00
2022-11-24T04:58:36.818Z,100.00
2022-11-24T05:01:08.498Z,100.00
2022-11-24T05:03:36.952Z,100.00
2022-11-24T05:06:05.500Z,100.00
2022-11-24T05:08:33.801Z,100.00
2022-11-24T05:11:05.705Z,100.00
2022-11-24T05:13:35.234Z,100.00
2022-11-24T05:16:03.515Z,100.00
2022-11-24T05:18:31.635Z,100.00
2022-11-24T05:21:00.583Z,100.00
2022-11-24T05:23:29.065Z,100.00
2022-11-24T05:26:00.914Z,100.00
2022-11-24T05:28:29.456Z,100.00
2022-11-24T05:31:02.259Z,100.00
2022-11-24T05:33:33.478Z,100.00
2022-11-24T05:36:03.323Z,100.00
2022-11-24T05:38:31.673Z,100.00
2022-11-24T05:41:02.795Z,100.00
2022-11-24T05:43:31.276Z,100.00
2022-11-24T05:46:02.575Z,100.00
2022-11-24T05:48:30.865Z,100.00
2022-11-24T05:51:01.029Z,100.00
2022-11-24T05:53:31.385Z,100.00
2022-11-24T05:55:59.655Z,100.00
2022-11-24T05:58:27.927Z,100.00
2022-11-24T06:00:56.089Z,100.00
2022-11-24T06:03:25.788Z,100.00
2022-11-24T06:05:53.917Z,100.00
2022-11-24T06:08:25.556Z,100.00
2022-11-24T06:11:16.370Z,100.00
2022-11-24T06:13:45.630Z,100.00
2022-11-24T06:16:14.978Z,100.00
2022-11-24T06:18:44.629Z,100.00
2022-11-24T06:21:12.792Z,100.00
2022-11-24T06:23:41.063Z,100.00
2022-11-24T06:26:09.412Z,100.00
2022-11-24T06:28:37.685Z,100.00
2022-11-24T06:31:07.219Z,100.00
2022-11-24T06:33:36.163Z,100.00
2022-11-24T06:36:07.632Z,100.00
2022-11-24T06:38:36.946Z,100.00
2022-11-24T06:41:07.279Z,100.00
2022-11-24T06:43:36.760Z,100.00
2022-11-24T06:46:05.224Z,100.00
2022-11-24T06:48:33.550Z,100.00
2022-11-24T06:51:02.633Z,100.00
2022-11-24T06:53:33.526Z,100.00
2022-11-24T06:56:03.247Z,100.00
2022-11-24T06:58:31.773Z,100.00
2022-11-24T07:00:59.997Z,100.00
2022-11-24T07:03:28.369Z,100.00
2022-11-24T07:06:00.473Z,100.00
2022-11-24T07:08:29.622Z,100.00
2022-11-24T07:11:06.235Z,100.00
2022-11-24T07:13:34.478Z,100.00
2022-11-24T07:16:12.886Z,100.00
2022-11-24T07:18:41.196Z,100.00
2022-11-24T07:21:09.364Z,100.00
2022-11-24T07:23:37.887Z,100.00
2022-11-24T07:26:09.154Z,100.00
2022-11-24T07:28:38.045Z,100.00
2022-11-24T07:31:07.595Z,100.00
2022-11-24T07:33:36.197Z,100.00
2022-11-24T07:36:06.415Z,100.00
2022-11-24T07:38:35.826Z,100.00
2022-11-24T07:41:05.326Z,100.00
2022-11-24T07:43:36.543Z,100.00
2022-11-24T07:46:06.051Z,100.00
2022-11-24T07:48:34.701Z,100.00
2022-11-24T07:51:04.421Z,100.00
2022-11-24T07:53:33.607Z,100.00
2022-11-24T07:56:03.491Z,100.00
2022-11-24T07:58:33.720Z,100.00
2022-11-24T08:01:11.455Z,100.00
2022-11-24T08:03:39.793Z,100.00
2022-11-24T08:06:27.291Z,100.00
2022-11-24T08:08:57.233Z,100.00
2022-11-24T08:11:25.953Z,100.00
2022-11-24T08:13:54.171Z,100.00
2022-11-24T08:16:24.142Z,100.00
2022-11-24T08:18:53.911Z,100.00
2022-11-24T08:21:23.505Z,100.00
2022-11-24T08:23:55.708Z,100.00
2022-11-24T08:26:25.060Z,100.00
2022-11-24T08:28:56.633Z,100.00
2022-11-24T08:31:34.183Z,100.00
2022-11-24T08:34:03.580Z,100.00
2022-11-24T08:36:32.588Z,100.00
2022-11-24T08:39:01.740Z,100.00
2022-11-24T08:41:30.762Z,100.00
2022-11-24T08:43:59.255Z,100.00
2022-11-24T08:46:29.009Z,100.00
2022-11-24T08:48:57.142Z,100.00
2022-11-24T08:51:27.203Z,100.00
2022-11-24T08:53:56.999Z,100.00
2022-11-24T08:56:25.912Z,100.00
2022-11-24T08:58:54.701Z,100.00
2022-11-24T09:01:46.717Z,100.00
2022-11-24T09:04:16.615Z,100.00
2022-11-24T09:06:44.754Z,100.00
2022-11-24T09:09:13.088Z,100.00
2022-11-24T09:11:41.224Z,100.00
2022-11-24T09:14:09.350Z,100.00
2022-11-24T09:16:38.058Z,100.00
2022-11-24T09:19:08.147Z,100.00
2022-11-24T09:21:39.136Z,100.00
2022-11-24T09:24:08.580Z,100.00
2022-11-24T09:26:43.035Z,100.00
2022-11-24T09:29:15.040Z,100.00
2022-11-24T09:31:43.445Z,100.00
2022-11-24T09:34:15.608Z,100.00
2022-11-24T09:36:45.215Z,100.00
2022-11-24T09:39:13.775Z,100.00
2022-11-24T09:42:15.329Z,100.00
2022-11-24T09:45:19.973Z,100.00
2022-11-24T09:48:03.693Z,100.00
2022-11-24T09:50:35.186Z,100.00
2022-11-24T09:53:15.588Z,100.00
2022-11-24T09:55:46.307Z,100.00
2022-11-24T09:58:22.854Z,100.00
2022-11-24T10:00:54.535Z,100.00
2022-11-24T10:03:29.144Z,100.00
2022-11-24T10:05:57.599Z,100.00
2022-11-24T10:08:48.168Z,100.00
2022-11-24T10:11:19.290Z,100.00
2022-11-24T10:14:06.050Z,100.00
2022-11-24T10:16:46.554Z,100.00
2022-11-24T10:19:36.347Z,100.00
2022-11-24T10:22:19.890Z,100.00
2022-11-24T10:25:05.413Z,100.00
2022-11-24T10:27:38.774Z,100.00
2022-11-24T10:30:15.179Z,100.00
2022-11-24T10:32:47.423Z,100.00
2022-11-24T10:35:19.274Z,100.00
2022-11-24T10:37:56.378Z,100.00
2022-11-24T10:43:22.874Z,100.00
2022-11-24T10:45:52.094Z,100.00
2022-11-24T10:48:25.612Z,100.00
2022-11-24T10:50:55.589Z,100.00
2022-11-24T10:53:28.039Z,100.00
2022-11-24T10:56:03.062Z,100.00
2022-11-24T10:58:37.704Z,100.00
2022-11-24T11:01:22.969Z,100.00
2022-11-24T11:03:53.579Z,100.00
2022-11-24T11:06:23.857Z,100.00
2022-11-24T11:09:12.136Z,100.00
2022-11-24T11:11:43.048Z,100.00
2022-11-24T11:14:13.136Z,100.00
2022-11-24T11:16:43.229Z,100.00
2022-11-24T11:19:48.817Z,100.00
2022-11-24T11:22:25.363Z,100.00
2022-11-24T11:25:07.259Z,100.00
2022-11-24T11:27:37.120Z,100.00
2022-11-24T11:36:12.670Z,100.00
2022-11-24T11:38:41.986Z,100.00
2022-11-24T11:41:20.786Z,100.00
2022-11-24T11:43:58.195Z,100.00
2022-11-24T11:46:29.873Z,100.00
2022-11-24T11:48:58.077Z,100.00
2022-11-24T11:51:46.574Z,100.00
2022-11-24T11:54:21.781Z,100.00
2022-11-24T11:56:57.685Z,100.00
2022-11-24T11:59:46.132Z,100.00
2022-11-24T12:02:46.014Z,100.00
2022-11-24T12:05:26.404Z,100.00
2022-11-24T12:08:10.857Z,100.00
2022-11-24T12:10:47.566Z,100.00
2022-11-24T12:13:36.600Z,100.00
2022-11-24T12:16:15.640Z,100.00
2022-11-24T12:18:58.723Z,100.00
2022-11-24T12:21:35.045Z,100.00
2022-11-24T12:24:12.701Z,100.00
2022-11-24T12:26:47.205Z,100.00
2022-11-24T12:29:44.573Z,73.72
2022-11-24T12:32:26.409Z,70.62
2022-11-24T12:35:00.766Z,68.87
2022-11-24T12:37:49.982Z,67.99
2022-11-24T12:40:27.921Z,66.21
2022-11-24T12:43:05.459Z,64.84
2022-11-24T12:45:40.192Z,63.83
2022-11-24T12:48:20.940Z,62.99
2022-11-24T12:50:53.464Z,62.57
2022-11-24T12:53:25.620Z,62.01
2022-11-24T12:55:54.893Z,63.10
2022-11-24T12:58:31.360Z,63.17
2022-11-24T13:01:14.813Z,63.90
2022-11-24T13:04:00.096Z,66.81
2022-11-24T13:06:36.752Z,64.90
2022-11-24T13:09:10.317Z,62.94
2022-11-24T13:11:43.981Z,55.56
2022-11-24T13:14:22.007Z,52.33
2022-11-24T13:17:21.722Z,48.38
2022-11-24T13:19:41.713Z,46.88
2022-11-24T13:22:18.724Z,46.52
2022-11-24T13:24:46.934Z,43.30
2022-11-24T13:27:40.074Z,44.66
2022-11-24T13:30:50.051Z,46.52
2022-11-24T13:33:35.203Z,44.89
2022-11-24T13:36:35.041Z,43.46
2022-11-24T13:39:06.334Z,41.29
2022-11-24T13:42:01.846Z,40.01
2022-11-24T13:44:30.127Z,38.98
2022-11-24T13:47:05.129Z,38.68
2022-11-24T13:49:40.865Z,42.56
2022-11-24T13:52:46.859Z,47.49
2022-11-24T13:55:34.665Z,55.04
2022-11-24T13:58:25.804Z,58.83
2022-11-24T14:01:13.533Z,63.39
2022-11-24T14:04:07.140Z,66.31
2022-11-24T14:06:40.657Z,69.04
2022-11-24T14:09:22.918Z,71.57
2022-11-24T14:12:16.481Z,76.19
2022-11-24T14:14:46.163Z,79.76
2022-11-24T14:17:20.102Z,82.51
2022-11-24T14:19:50.506Z,85.96
2022-11-24T14:22:22.036Z,89.05
2022-11-24T14:24:56.460Z,90.93
2022-11-24T14:27:30.757Z,93.58
2022-11-24T14:30:00.634Z,96.09
2022-11-24T14:32:29.313Z,97.68
2022-11-24T14:34:57.646Z,99.51
2022-11-24T14:37:25.875Z,100.00
2022-11-24T14:39:55.469Z,100.00
2022-11-24T14:42:27.323Z,100.00
2022-11-24T14:44:58.874Z,100.00
2022-11-24T14:47:31.966Z,100.00
2022-11-24T14:50:09.963Z,100.00
2022-11-24T14:52:45.916Z,100.00
2022-11-24T14:55:28.254Z,100.00
2022-11-24T14:57:57.551Z,100.00
2022-11-24T15:00:31.084Z,100.00
2022-11-24T15:03:16.130Z,100.00
2022-11-24T15:05:58.673Z,100.00
2022-11-24T15:08:29.245Z,100.00
2022-11-24T15:11:01.501Z,100.00
2022-11-24T15:13:31.055Z,100.00
2022-11-24T15:16:03.267Z,100.00
2022-11-24T15:18:37.776Z,100.00
2022-11-24T15:21:06.074Z,100.00
2022-11-24T15:23:35.221Z,100.00
2022-11-24T15:26:31.451Z,100.00
2022-11-24T15:29:02.304Z,100.00
2022-11-24T15:31:30.506Z,100.00
2022-11-24T15:33:58.723Z,100.00
2022-11-24T15:36:26.918Z,100.00
2022-11-24T15:38:55.090Z,100.00
2022-11-24T15:41:29.069Z,100.00
2022-11-24T15:43:59.411Z,100.00
2022-11-24T15:46:28.566Z,100.00
2022-11-24T15:48:57.354Z,100.00
2022-11-24T15:51:27.287Z,100.00
2022-11-24T15:54:01.127Z,100.00
2022-11-24T15:56:33.777Z,100.00
2022-11-24T15:59:02.184Z,100.00
2022-11-24T16:01:32.466Z,100.00
2022-11-24T16:04:00.930Z,100.00
2022-11-24T16:06:29.155Z,100.00
2022-11-24T16:08:58.282Z,100.00
2022-11-24T16:11:26.726Z,100.00
2022-11-24T16:13:56.405Z,100.00
2022-11-24T16:16:25.434Z,100.00
2022-11-24T16:18:53.787Z,100.00
2022-11-24T16:21:22.143Z,100.00
2022-11-24T16:23:50.319Z,100.00
2022-11-24T16:26:18.617Z,100.00
2022-11-24T16:28:46.893Z,100.00
2022-11-24T16:31:18.060Z,100.00
2022-11-24T16:33:46.672Z,100.00
2022-11-24T16:36:15.328Z,100.00
2022-11-24T16:38:43.532Z,100.00
2022-11-24T16:41:11.772Z,100.00
2022-11-24T16:43:39.986Z,100.00
2022-11-24T16:46:25.205Z,100.00
2022-11-24T16:48:55.260Z,100.00
2022-11-24T16:51:25.584Z,100.00
2022-11-24T16:53:59.664Z,100.00
2022-11-24T16:56:28.741Z,100.00
2022-11-24T16:58:57.293Z,100.00
2022-11-24T17:01:27.252Z,100.00
2022-11-24T17:03:55.524Z,100.00
2022-11-24T17:06:23.824Z,100.00
2022-11-24T17:08:52.056Z,100.00
2022-11-24T17:11:22.264Z,100.00
2022-11-24T17:13:51.161Z,100.00
2022-11-24T17:16:21.309Z,100.00
2022-11-24T17:18:51.803Z,100.00
2022-11-24T17:21:21.693Z,100.00
2022-11-24T17:23:54.163Z,100.00
2022-11-24T17:26:22.823Z,100.00
2022-11-24T17:28:51.243Z,100.00
2022-11-24T17:31:23.158Z,100.00
2022-11-24T17:33:54.843Z,100.00
2022-11-24T17:36:23.681Z,100.00
2022-11-24T17:38:52.172Z,100.00
2022-11-24T17:41:21.311Z,100.00
2022-11-24T17:43:50.634Z,100.00
2022-11-24T17:46:19.085Z,100.00
2022-11-24T17:48:47.892Z,100.00
2022-11-24T17:51:19.818Z,100.00
2022-11-24T17:53:49.850Z,100.00
2022-11-24T17:56:20.514Z,100.00
2022-11-24T17:58:49.546Z,100.00
2022-11-24T18:01:17.835Z,100.00
2022-11-24T18:03:50.459Z,100.00
2022-11-24T18:06:25.543Z,100.00
2022-11-24T18:08:55.275Z,100.00
2022-11-24T18:11:30.604Z,100.00
2022-11-24T18:14:02.399Z,100.00
2022-11-24T18:16:32.002Z,100.00
2022-11-24T18:19:10.429Z,100.00
2022-11-24T18:21:41.993Z,100.00
2022-11-24T18:24:10.681Z,100.00
2022-11-24T18:26:38.958Z,100.00
2022-11-24T18:29:08.073Z,100.00
2022-11-24T18:31:37.241Z,100.00
2022-11-24T18:34:06.879Z,100.00
2022-11-24T18:36:35.834Z,100.00
2022-11-24T18:39:07.014Z,100.00
2022-11-24T18:41:36.086Z,100.00
2022-11-24T18:44:08.143Z,100.00
2022-11-24T18:46:37.175Z,100.00
2022-11-24T18:49:05.654Z,100.00
2022-11-24T18:51:34.034Z,100.00
2022-11-24T18:54:04.099Z,100.00
2022-11-24T18:56:33.969Z,100.00
2022-11-24T18:59:02.407Z,100.00
2022-11-24T19:01:31.321Z,100.00
2022-11-24T19:04:02.207Z,100.00
2022-11-24T19:06:32.920Z,100.00
2022-11-24T19:09:02.996Z,100.00
2022-11-24T19:11:35.626Z,100.00
2022-11-24T19:14:05.233Z,100.00
2022-11-24T19:16:33.639Z,100.00
2022-11-24T19:19:03.154Z,100.00
2022-11-24T19:21:33.535Z,100.00
2022-11-24T19:24:05.296Z,100.00
2022-11-24T19:26:36.093Z,100.00
2022-11-24T19:29:05.475Z,100.00
2022-11-24T19:31:34.511Z,100.00
2022-11-24T19:34:03.623Z,100.00
2022-11-24T19:36:32.764Z,100.00
2022-11-24T19:39:02.271Z,100.00
2022-11-24T19:41:32.366Z,100.00
2022-11-24T19:44:03.091Z,100.00
2022-11-24T19:46:31.633Z,100.00
2022-11-24T19:49:01.634Z,100.00
2022-11-24T19:51:32.759Z,100.00
2022-11-24T19:54:01.924Z,100.00
2022-11-24T19:56:31.890Z,100.00
2022-11-24T19:59:02.445Z,100.00
2022-11-24T20:01:32.648Z,100.00
2022-11-24T20:04:02.396Z,100.00
2022-11-24T20:06:33.538Z,100.00
2022-11-24T20:09:02.443Z,100.00
2022-11-24T20:11:31.079Z,100.00
2022-11-24T20:13:59.451Z,100.00
2022-11-24T20:16:30.726Z,100.00
2022-11-24T20:19:00.802Z,100.00
2022-11-24T20:21:31.340Z,100.00
2022-11-24T20:24:01.296Z,100.00
2022-11-24T20:26:31.974Z,100.00
2022-11-24T20:29:01.622Z,100.00
2022-11-24T20:31:33.977Z,100.00
2022-11-24T20:34:03.647Z,100.00
2022-11-24T20:36:33.533Z,100.00
2022-11-24T20:39:03.899Z,100.00
2022-11-24T20:41:34.334Z,100.00
2022-11-24T20:44:05.127Z,100.00
2022-11-24T20:46:36.497Z,100.00
2022-11-24T20:49:05.262Z,100.00
2022-11-24T20:51:35.218Z,100.00
2022-11-24T20:54:05.834Z,100.00
2022-11-24T20:56:36.657Z,100.00
2022-11-24T20:59:05.588Z,100.00
2022-11-24T21:01:38.352Z,100.00
2022-11-24T21:04:08.369Z,100.00
2022-11-24T21:06:37.297Z,100.00
2022-11-24T21:09:06.702Z,100.00
2022-11-24T21:11:35.278Z,100.00
2022-11-24T21:14:04.043Z,100.00
2022-11-24T21:16:35.552Z,100.00
2022-11-24T21:19:05.896Z,100.00
2022-11-24T21:21:35.749Z,100.00
2022-11-24T21:24:05.693Z,100.00
2022-11-24T21:26:36.823Z,100.00
2022-11-24T21:29:06.039Z,100.00
2022-11-24T21:31:38.557Z,100.00
2022-11-24T21:34:07.801Z,100.00
2022-11-24T21:36:37.925Z,100.00
2022-11-24T21:39:06.247Z,100.00
2022-11-24T21:41:35.161Z,100.00
2022-11-24T21:44:03.323Z,100.00
2022-11-24T21:46:40.426Z,100.00
2022-11-24T21:49:13.305Z,100.00
2022-11-24T21:51:41.454Z,100.00
2022-11-24T21:54:10.133Z,100.00
2022-11-24T21:56:38.268Z,100.00
2022-11-24T21:59:06.446Z,100.00
2022-11-24T22:01:34.640Z,100.00
2022-11-24T22:04:02.866Z,100.00
2022-11-24T22:06:33.428Z,100.00
2022-11-24T22:09:01.585Z,100.00
2022-11-24T22:11:29.796Z,100.00
2022-11-24T22:13:57.995Z,100.00
2022-11-24T22:16:26.951Z,100.00
2022-11-24T22:18:55.218Z,100.00
2022-11-24T22:21:30.074Z,100.00
2022-11-24T22:23:59.930Z,100.00
2022-11-24T22:26:29.767Z,100.00
2022-11-24T22:28:59.337Z,100.00
2022-11-24T22:31:28.976Z,100.00
2022-11-24T22:33:58.062Z,100.00
2022-11-24T22:36:28.124Z,100.00
2022-11-24T22:38:57.234Z,100.00
2022-11-24T22:41:26.906Z,100.00
2022-11-24T22:43:55.215Z,100.00
2022-11-24T22:46:25.157Z,100.00
2022-11-24T22:48:54.208Z,100.00
2022-11-24T22:51:23.703Z,100.00
2022-11-24T22:53:55.523Z,100.00
2022-11-24T22:56:24.846Z,100.00
2022-11-24T22:58:54.440Z,100.00
2022-11-24T23:01:24.868Z,100.00
2022-11-24T23:03:54.897Z,100.00
2022-11-24T23:06:24.923Z,100.00
2022-11-24T23:08:54.238Z,100.00
2022-11-24T23:11:30.729Z,100.00
2022-11-24T23:14:02.505Z,100.00
2022-11-24T23:16:31.323Z,100.00
2022-11-24T23:18:59.642Z,100.00
2022-11-24T23:21:30.041Z,100.00
2022-11-24T23:24:00.216Z,100.00
2022-11-24T23:26:31.182Z,100.00
2022-11-24T23:28:59.498Z,100.00
2022-11-24T23:31:29.767Z,100.00
2022-11-24T23:33:59.242Z,100.00
2022-11-24T23:36:28.263Z,100.00
2022-11-24T23:38:56.392Z,100.00
2022-11-24T23:41:26.266Z,100.00
2022-11-24T23:43:54.450Z,100.00
2022-11-24T23:46:24.367Z,100.00
2022-11-24T23:48:56.094Z,100.00
2022-11-24T23:51:25.980Z,100.00
2022-11-24T23:53:54.789Z,100.00
2022-11-24T23:56:24.466Z,100.00
2022-11-24T23:58:52.771Z,100.00
